^^
Station Historical Data
Daily Summary for January 12, 2018 Units:  Metric    English   Both
« Previous Day
Next Day »
Daily Weekly Monthly Yearly Custom
  High: Low: Average:
Temperature: -17.8 °C 21.9 °C 28.3 °C
Dew Point: -17.8 °C 2.5 °C 9.2 °C
Humidity: Humidity% 10% 33%
Wind Speed: 0km/h 0km/h 12.6km/h
Wind Gust: 0km/h - -
Wind- - SSW
Pressure: 0 hPa 1001.6 hPa -
Precipitation: 0 mm    
Historical Graphs
 
 
Tabular Data for January 12, 2018
Time Temperature Dew Point Pressure Wind Wind Speed Wind Gust Humidity Rainfall Rate (Hourly) solar Conditions
-17.8 °C -17.8 °C 0 hPa Calm     Humidity% 0 mm SolarRadiationWatts/m^2 W/m2 Conditions
00:03 26.1 °C 9.4 °C 1006 hPa SSW 17.7 km/h 22.5 km/h 35% 0 mm 0.0 W/m2
00:08 26 °C 9.4 °C 1006 hPa SSW 17.7 km/h 20.9 km/h 35% 0 mm 0.0 W/m2
00:13 25.9 °C 9.3 °C 1006 hPa SSW 13 km/h 19.3 km/h 35% 0 mm 0.0 W/m2
00:18 25.8 °C 9.2 °C 1006 hPa SSW 14.3 km/h 20.9 km/h 35% 0 mm 0.0 W/m2
00:23 25.7 °C 9.5 °C 1006 hPa SSW 17.7 km/h 20.9 km/h 36% 0 mm 0.0 W/m2
00:28 25.7 °C 9.1 °C 1006 hPa SSW 16.3 km/h 20.9 km/h 35% 0 mm 0.0 W/m2
00:34 25.7 °C 9.1 °C 1006 hPa SSW 11.1 km/h 17.7 km/h 35% 0 mm 0.0 W/m2
00:39 25.6 °C 9.4 °C 1006.3 hPa SSW 9.7 km/h 12.9 km/h 36% 0 mm 0.0 W/m2
00:44 25.6 °C 9.4 °C 1006.3 hPa SSW 17.7 km/h 19.3 km/h 36% 0 mm 0.0 W/m2
00:59 25.4 °C 9.2 °C 1006.3 hPa SSW 14.3 km/h 19.3 km/h 36% 0 mm 0.0 W/m2
01:04 25.3 °C 9.6 °C 1006 hPa SSW 16.3 km/h 20.9 km/h 37% 0 mm 0.0 W/m2
01:09 25.2 °C 9.5 °C 1006 hPa SSW 14.3 km/h 20.9 km/h 37% 0 mm 0.0 W/m2
01:14 25.2 °C 9.5 °C 1006 hPa SSW 13 km/h 17.7 km/h 37% 0 mm 0.0 W/m2
01:24 24.9 °C 9.2 °C 1006 hPa SSW 9.7 km/h 17.7 km/h 37% 0 mm 0.0 W/m2
01:29 24.8 °C 9.5 °C 1006 hPa SSW 11.1 km/h 16.1 km/h 38% 0 mm 0.0 W/m2
01:45 24.6 °C 10.1 °C 1006 hPa SSW 16.3 km/h 19.3 km/h 40% 0 mm 0.0 W/m2
01:50 24.5 °C 10 °C 1006 hPa SW 16.3 km/h 19.3 km/h 40% 0 mm 0.0 W/m2
01:55 24.5 °C 10 °C 1006 hPa SW 13 km/h 20.9 km/h 40% 0 mm 0.0 W/m2
02:00 24.4 °C 9.9 °C 1006 hPa SW 17.7 km/h 19.3 km/h 40% 0 mm 0.0 W/m2
02:05 24.4 °C 9.9 °C 1006 hPa SW 19.5 km/h 19.5 km/h 40% 0 mm 0.0 W/m2
02:10 24.3 °C 9.8 °C 1005.6 hPa SW 14.3 km/h 17.7 km/h 40% 0 mm 0.0 W/m2
02:20 24.2 °C 10.1 °C 1006 hPa SW 13 km/h 16.1 km/h 41% 0 mm 0.0 W/m2
02:25 24.1 °C 10 °C 1005.6 hPa SW 11.1 km/h 16.1 km/h 41% 0 mm 0.0 W/m2
02:30 24 °C 9.9 °C 1005.6 hPa SW 11.1 km/h 14.5 km/h 41% 0 mm 0.0 W/m2
02:35 23.8 °C 9.8 °C 1005.6 hPa SW 11.1 km/h 14.5 km/h 41% 0 mm 0.0 W/m2
02:40 23.8 °C 9.8 °C 1005.6 hPa SW 13 km/h 14.5 km/h 41% 0 mm 0.0 W/m2
02:45 23.7 °C 10 °C 1005.6 hPa SW 11.1 km/h 11.3 km/h 42% 0 mm 0.0 W/m2
02:50 23.7 °C 10 °C 1005.6 hPa SW 13 km/h 16.1 km/h 42% 0 mm 0.0 W/m2
02:55 23.7 °C 10 °C 1005.6 hPa SW 14.3 km/h 17.7 km/h 42% 0 mm 0.0 W/m2
03:00 23.7 °C 10 °C 1005.6 hPa SW 6.4 km/h 11.3 km/h 42% 0 mm 0.0 W/m2
03:05 23.6 °C 9.9 °C 1006 hPa SW 7.9 km/h 9.7 km/h 42% 0 mm 0.0 W/m2
03:10 23.6 °C 9.9 °C 1006.3 hPa SW 7.9 km/h 12.9 km/h 42% 0 mm 0.0 W/m2
03:20 23.5 °C 10.2 °C 1006.3 hPa SW 7.9 km/h 9.7 km/h 43% 0 mm 0.0 W/m2
03:31 23.2 °C 9.9 °C 1006.3 hPa SW 6.4 km/h 8 km/h 43% 0 mm 0.0 W/m2
03:36 23.1 °C 10.2 °C 1006.3 hPa SW 11.1 km/h 12.9 km/h 44% 0 mm 0.0 W/m2
03:46 22.9 °C 10 °C 1006.3 hPa SW 9.7 km/h 11.3 km/h 44% 0 mm 0.0 W/m2
03:56 22.6 °C 10.1 °C 1006 hPa SW 11.1 km/h 14.5 km/h 45% 0 mm 0.0 W/m2
04:01 22.6 °C 10.1 °C 1006 hPa SW 9.7 km/h 12.9 km/h 45% 0 mm 0.0 W/m2
04:16 22.4 °C 10.2 °C 1006 hPa SW 13 km/h 14.5 km/h 46% 0 mm 0.0 W/m2
04:21 22.3 °C 10.1 °C 1006 hPa SW 11.1 km/h 12.9 km/h 46% 0 mm 0.0 W/m2
04:26 22.3 °C 10.1 °C 1006 hPa SW 7.9 km/h 9.7 km/h 46% 0 mm 0.0 W/m2
04:32 22.2 °C 10 °C 1006.3 hPa SW 7.9 km/h 8 km/h 46% 0 mm 0.0 W/m2
04:37 22.2 °C 9.7 °C 1006.3 hPa SW 14.3 km/h 14.5 km/h 45% 0 mm 0.0 W/m2
04:42 22.3 °C 9.5 °C 1006.3 hPa SW 13 km/h 14.5 km/h 44% 0 mm 0.0 W/m2
04:57 22.9 °C 9.7 °C 1006.3 hPa SSW 7.9 km/h 11.3 km/h 43% 0 mm 0.0 W/m2
05:02 22.7 °C 9.8 °C 1006 hPa SSW 9.7 km/h 14.5 km/h 44% 0 mm 0.0 W/m2
05:07 22.7 °C 9.8 °C 1006 hPa SW 9.7 km/h 9.7 km/h 44% 0 mm 0.0 W/m2
05:12 22.7 °C 9.5 °C 1006 hPa SW 11.1 km/h 12.9 km/h 43% 0 mm 0.0 W/m2
05:17 22.6 °C 9.4 °C 1006.3 hPa SW 7.9 km/h 9.7 km/h 43% 0 mm 0.0 W/m2
05:27 22.5 °C 9.3 °C 1006.3 hPa SW 7.9 km/h 8 km/h 43% 0 mm 0.0 W/m2
05:32 22.6 °C 9.4 °C 1006.3 hPa SW 3.2 km/h 6.4 km/h 43% 0 mm 0.0 W/m2
05:37 22.5 °C 9.3 °C 1006.3 hPa SW 7.9 km/h 8 km/h 43% 0 mm 0.0 W/m2
05:47 22.3 °C 9.5 °C 1006.3 hPa SW 7.9 km/h 9.7 km/h 44% 0 mm 0.0 W/m2
05:52 22.3 °C 9.5 °C 1006.3 hPa SW 6.4 km/h 8 km/h 44% 0 mm 0.0 W/m2
05:57 22.1 °C 9.6 °C 1006.3 hPa SW 4.7 km/h 9.7 km/h 45% 0 mm 0.0 W/m2
06:02 21.9 °C 9.8 °C 1006.3 hPa SW 6.4 km/h 9.7 km/h 46% 0 mm 0.0 W/m2
06:08 21.9 °C 9.8 °C 1006.3 hPa SW 7.9 km/h 12.9 km/h 46% 0 mm 5.0 W/m2
06:13 21.9 °C 9.8 °C 1006.3 hPa SW 9.7 km/h 11.3 km/h 46% 0 mm 9.0 W/m2
06:19 21.9 °C 9.4 °C 1006.3 hPa SW 6.4 km/h 9.7 km/h 45% 0 mm 12.0 W/m2
06:24 21.9 °C 9.4 °C 1006.3 hPa SW 7.9 km/h 9.7 km/h 45% 0 mm 16.0 W/m2
06:29 21.9 °C 9.4 °C 1006.3 hPa SW 4.7 km/h 8 km/h 45% 0 mm 19.0 W/m2
06:38 22.3 °C 9.5 °C 1006.3 hPa SW 6.4 km/h 9.7 km/h 44% 0 mm 42.0 W/m2
06:43 22.4 °C 9.5 °C 1006.3 hPa SW 6.4 km/h 11.3 km/h 44% 0 mm 54.0 W/m2
06:48 22.7 °C 9.5 °C 1006.3 hPa SW 7.9 km/h 11.3 km/h 43% 0 mm 69.0 W/m2
06:53 22.9 °C 9.3 °C 1006.3 hPa SW 11.1 km/h 12.9 km/h 42% 0 mm 84.0 W/m2
07:05 23.3 °C 9.7 °C 1006.7 hPa SW 9.7 km/h 12.9 km/h 42% 0 mm 121.0 W/m2
07:33 24.2 °C 9.7 °C 1007 hPa SW 7.9 km/h 11.3 km/h 40% 0 mm 218.0 W/m2
07:42 24.6 °C 9.3 °C 1007 hPa SW 7.9 km/h 9.7 km/h 38% 0 mm 255.0 W/m2
08:05 25.6 °C 9.4 °C 1007 hPa SW 6.4 km/h 9.7 km/h 36% 0 mm 325.0 W/m2
08:21 26.2 °C 9.5 °C 1006.7 hPa SW 9.7 km/h 12.9 km/h 35% 0 mm 374.0 W/m2
08:34 27.3 °C 9.2 °C 1006.7 hPa SW 7.9 km/h 11.3 km/h 32% 0 mm 410.0 W/m2
08:46 27.7 °C 9 °C 1006.7 hPa SW 9.7 km/h 11.3 km/h 31% 0 mm 462.0 W/m2
10:34 34.7 °C 8.4 °C 1006.3 hPa Calm   12.9 km/h 20% 0 mm 795.0 W/m2
10:49 35.4 °C 9 °C 1006 hPa North 14.3 km/h 27.4 km/h 20% 0 mm 823.0 W/m2
11:03 36.1 °C 9.6 °C 1006 hPa North 11.1 km/h 16.1 km/h 20% 0 mm 861.0 W/m2
11:19 36.9 °C 9.5 °C 1006 hPa NNW 9.7 km/h 20.9 km/h 19% 0 mm 886.0 W/m2
11:24 37 °C 9.6 °C 1005.6 hPa North 6.4 km/h 24.1 km/h 19% 0 mm 889.0 W/m2
11:39 37.6 °C 9.2 °C 1005.6 hPa NNW 19.5 km/h 24.1 km/h 18% 0 mm 916.0 W/m2
11:48 38.3 °C 9.8 °C 1005.6 hPa NNW 13 km/h 19.3 km/h 18% 0 mm 930.0 W/m2
11:58 38.2 °C 8.9 °C 1005.3 hPa NNW 11.1 km/h 29 km/h 17% 0 mm 939.0 W/m2
12:03 38.3 °C 9.8 °C 1005.3 hPa NNW 7.9 km/h 22.5 km/h 18% 0 mm 946.0 W/m2
12:08 38.7 °C 9.3 °C 1005.3 hPa NNW 25.9 km/h 25.9 km/h 17% 0 mm 944.0 W/m2
12:34 39.1 °C 9.6 °C 1005 hPa North 6.4 km/h 24.1 km/h 17% 0 mm 1013.0 W/m2
12:45 39.4 °C 8.9 °C 1004.6 hPa ENE 1.4 km/h 22.5 km/h 16% 0 mm 1018.0 W/m2
14:06 40.3 °C 5.4 °C 1003.9 hPa NNE 17.7 km/h 22.5 km/h 12% 0 mm 1039.0 W/m2
14:16 40.4 °C 4.3 °C 1003.9 hPa NNE 7.9 km/h 19.3 km/h 11% 0 mm 1000.0 W/m2
14:22 40.3 °C 5.4 °C 1003.9 hPa NNE 1.4 km/h 14.5 km/h 12% 0 mm 1007.0 W/m2
14:44 40.5 °C 5.6 °C 1003.6 hPa Calm     12% 0 mm 932.0 W/m2
14:55 40.5 °C 4.3 °C 1003.3 hPa Calm   3.2 km/h 11% 0 mm 932.0 W/m2
15:19 40.6 °C 4.4 °C 1002.9 hPa Calm   11.3 km/h 11% 0 mm 179.0 W/m2
15:28 41.2 °C 3.5 °C 1002.9 hPa NE 1.4 km/h 1.6 km/h 10% 0 mm 842.0 W/m2
15:38 40.9 °C 3.3 °C 1002.6 hPa Calm   11.3 km/h 10% 0 mm 810.0 W/m2
15:50 41.5 °C 3.7 °C 1002.6 hPa Calm   3.2 km/h 10% 0 mm 802.0 W/m2
15:57 41.8 °C 4 °C 1002.3 hPa Calm   11.3 km/h 10% 0 mm 793.0 W/m2
16:05 40.8 °C 4.6 °C 1002.3 hPa Calm     11% 0 mm 111.0 W/m2
16:16 40.1 °C 4 °C 1002.3 hPa Calm   12.9 km/h 11% 0 mm 93.0 W/m2
16:22 39.9 °C 2.5 °C 1001.9 hPa NNE 14.3 km/h 14.5 km/h 10% 0 mm 98.0 W/m2
16:28 39.8 °C 3.8 °C 1001.9 hPa Calm     11% 0 mm 88.0 W/m2
16:36 39.7 °C 3.7 °C 1001.9 hPa Calm   12.9 km/h 11% 0 mm 93.0 W/m2
16:42 39.8 °C 3.8 °C 1001.9 hPa NE 11.1 km/h 14.5 km/h 11% 0 mm 153.0 W/m2
16:48 39.9 °C 3.9 °C 1001.9 hPa NE 9.7 km/h 14.5 km/h 11% 0 mm 622.0 W/m2
16:54 40.1 °C 4 °C 1001.9 hPa ENE 7.9 km/h 12.9 km/h 11% 0 mm 596.0 W/m2
17:18 40.1 °C 4 °C 1001.6 hPa Calm   11.3 km/h 11% 0 mm 114.0 W/m2
17:35 39.7 °C 3.7 °C 1001.6 hPa Calm     11% 0 mm 77.0 W/m2
17:49 39 °C 8.6 °C 1001.6 hPa SSE 24.1 km/h 32.2 km/h 16% 0 mm 65.0 W/m2
18:32 35.1 °C 10.2 °C 1002.9 hPa SW 17.7 km/h 29 km/h 22% 0 mm 60.0 W/m2
18:42 34.3 °C 10.2 °C 1002.9 hPa SW 19.5 km/h 30.6 km/h 23% 0 mm 56.0 W/m2
18:49 33.9 °C 10.5 °C 1003.3 hPa SSW 20.9 km/h 29 km/h 24% 0 mm 65.0 W/m2
18:59 33.5 °C 10.8 °C 1003.6 hPa SSW 19.5 km/h 30.6 km/h 25% 0 mm 69.0 W/m2
19:14 32.8 °C 10.8 °C 1004.3 hPa SW 24.1 km/h 29 km/h 26% 0 mm 35.0 W/m2
19:19 32.6 °C 10.6 °C 1004.6 hPa SW 17.7 km/h 29 km/h 26% 0 mm 23.0 W/m2
19:24 32.3 °C 10.9 °C 1004.6 hPa SW 20.9 km/h 29 km/h 27% 0 mm 18.0 W/m2
19:34 31.9 °C 11.1 °C 1004.6 hPa SW 25.9 km/h 30.6 km/h 28% 0 mm 9.0 W/m2
19:40 31.7 °C 11 °C 1004.6 hPa SW 22.7 km/h 25.7 km/h 28% 0 mm 7.0 W/m2
20:13 30.5 °C 11.5 °C 1005.3 hPa SSW 22.7 km/h 33.8 km/h 31% 0 mm 0.0 W/m2
20:24 30.2 °C 11.2 °C 1005.6 hPa SSW 19.5 km/h 27.4 km/h 31% 0 mm 0.0 W/m2
20:52 29.5 °C 11.5 °C 1005.6 hPa South 22.7 km/h 30.6 km/h 33% 0 mm 0.0 W/m2
21:01 29.4 °C 11.9 °C 1005.3 hPa SSW 24.1 km/h 25.7 km/h 34% 0 mm 0.0 W/m2
21:29 28.7 °C 11.7 °C 1005.6 hPa SW 25.9 km/h 27.4 km/h 35% 0 mm 0.0 W/m2
21:45 27.9 °C 11.4 °C 1005.6 hPa SSW 22.7 km/h 30.6 km/h 36% 0 mm 0.0 W/m2
22:06 27.1 °C 12 °C 1006.3 hPa SSW 27.4 km/h 32.2 km/h 39% 0 mm 0.0 W/m2
22:11 27 °C 11.9 °C 1006.3 hPa SSW 28.8 km/h 33.8 km/h 39% 0 mm 0.0 W/m2
22:19 26.9 °C 12.2 °C 1006.7 hPa SSW 30.6 km/h 35.4 km/h 40% 0 mm 0.0 W/m2
22:24 26.8 °C 12.1 °C 1006.7 hPa SSW 20.9 km/h 32.2 km/h 40% 0 mm 0.0 W/m2
22:29 26.7 °C 12 °C 1006.7 hPa SSW 20.9 km/h 32.2 km/h 40% 0 mm 0.0 W/m2
22:34 26.6 °C 12.3 °C 1007 hPa SSW 24.1 km/h 30.6 km/h 41% 0 mm 0.0 W/m2
22:39 26.4 °C 12.1 °C 1007 hPa SSW 24.1 km/h 33.8 km/h 41% 0 mm 0.0 W/m2
22:49 26.2 °C 12.3 °C 1007.3 hPa SW 27.4 km/h 29 km/h 42% 0 mm 0.0 W/m2
22:54 26.2 °C 12.6 °C 1007.3 hPa SW 19.5 km/h 30.6 km/h 43% 0 mm 0.0 W/m2
22:59 26.1 °C 12.5 °C 1007.3 hPa SW 24.1 km/h 30.6 km/h 43% 0 mm 0.0 W/m2
23:04 25.9 °C 12.7 °C 1007.3 hPa SW 27.4 km/h 27.4 km/h 44% 0 mm 0.0 W/m2
23:09 25.8 °C 12.6 °C 1007.3 hPa SSW 20.9 km/h 25.7 km/h 44% 0 mm 0.0 W/m2
23:19 25.6 °C 12.4 °C 1007.7 hPa SW 20.9 km/h 29 km/h 44% 0 mm 0.0 W/m2
23:29 25.5 °C 12.4 °C 1007.7 hPa SW 19.5 km/h 29 km/h 44% 0 mm 0.0 W/m2
23:34 25.4 °C 12.3 °C 1007.7 hPa SSW 20.9 km/h 25.7 km/h 44% 0 mm 0.0 W/m2
23:39 25.4 °C 12.6 °C 1007.7 hPa SSW 19.5 km/h 27.4 km/h 45% 0 mm 0.0 W/m2
23:44 25.3 °C 12.5 °C 1007.7 hPa SSW 27.4 km/h 27.4 km/h 45% 0 mm 0.0 W/m2
23:54 25.2 °C 12.4 °C 1007.7 hPa SW 19.5 km/h 27.4 km/h 45% 0 mm 0.0 W/m2
23:59 25.1 °C 12.7 °C 1007.7 hPa SSW 16.3 km/h 22.5 km/h 46% 0 mm 0.0 W/m2
Canyon Roadhouse, Fishriver Canyon, Namibia
Compliments of Weather Underground - 2.25 mb